sensor_id;sensor_type;location;lat;lon;timestamp;temperature;humidity
78886;DHT22;68269;52.514;5.722;2024-02-26T00:00:23;6.40;71.20
78886;DHT22;68269;52.514;5.722;2024-02-26T00:02:52;6.30;71.30
78886;DHT22;68269;52.514;5.722;2024-02-26T00:05:21;6.30;71.20
78886;DHT22;68269;52.514;5.722;2024-02-26T00:07:50;6.30;71.20
78886;DHT22;68269;52.514;5.722;2024-02-26T00:10:22;6.30;71.20
78886;DHT22;68269;52.514;5.722;2024-02-26T00:12:52;6.30;71.30
78886;DHT22;68269;52.514;5.722;2024-02-26T00:15:21;6.30;71.30
78886;DHT22;68269;52.514;5.722;2024-02-26T00:17:51;6.30;71.30
78886;DHT22;68269;52.514;5.722;2024-02-26T00:20:20;6.30;71.30
78886;DHT22;68269;52.514;5.722;2024-02-26T00:22:50;6.20;71.20
78886;DHT22;68269;52.514;5.722;2024-02-26T00:25:22;6.20;71.30
78886;DHT22;68269;52.514;5.722;2024-02-26T00:27:51;6.20;71.30
78886;DHT22;68269;52.514;5.722;2024-02-26T00:30:20;6.20;71.30
78886;DHT22;68269;52.514;5.722;2024-02-26T00:32:50;6.20;71.30
78886;DHT22;68269;52.514;5.722;2024-02-26T00:35:19;6.20;71.30
78886;DHT22;68269;52.514;5.722;2024-02-26T00:37:49;6.20;71.20
78886;DHT22;68269;52.514;5.722;2024-02-26T00:40:18;6.20;71.20
78886;DHT22;68269;52.514;5.722;2024-02-26T00:42:50;6.20;71.20
78886;DHT22;68269;52.514;5.722;2024-02-26T00:45:20;6.20;71.20
78886;DHT22;68269;52.514;5.722;2024-02-26T00:47:49;6.20;71.20
78886;DHT22;68269;52.514;5.722;2024-02-26T00:50:18;6.20;71.20
78886;DHT22;68269;52.514;5.722;2024-02-26T00:52:47;6.20;71.20
78886;DHT22;68269;52.514;5.722;2024-02-26T00:55:17;6.20;71.20
78886;DHT22;68269;52.514;5.722;2024-02-26T00:57:46;6.20;71.20
78886;DHT22;68269;52.514;5.722;2024-02-26T01:00:19;6.20;71.20
78886;DHT22;68269;52.514;5.722;2024-02-26T01:02:48;6.20;71.20
78886;DHT22;68269;52.514;5.722;2024-02-26T01:05:17;6.20;71.20
78886;DHT22;68269;52.514;5.722;2024-02-26T01:07:47;6.20;71.20
78886;DHT22;68269;52.514;5.722;2024-02-26T01:10:16;6.20;71.20
78886;DHT22;68269;52.514;5.722;2024-02-26T01:12:46;6.20;71.20
78886;DHT22;68269;52.514;5.722;2024-02-26T01:15:17;6.20;71.20
78886;DHT22;68269;52.514;5.722;2024-02-26T01:17:50;6.20;71.20
78886;DHT22;68269;52.514;5.722;2024-02-26T01:20:19;6.10;71.30
78886;DHT22;68269;52.514;5.722;2024-02-26T01:22:49;6.10;71.30
78886;DHT22;68269;52.514;5.722;2024-02-26T01:25:18;6.10;71.30
78886;DHT22;68269;52.514;5.722;2024-02-26T01:27:47;6.10;71.40
78886;DHT22;68269;52.514;5.722;2024-02-26T01:30:19;6.10;71.30
78886;DHT22;68269;52.514;5.722;2024-02-26T01:32:49;6.10;71.40
78886;DHT22;68269;52.514;5.722;2024-02-26T01:35:18;6.10;71.30
78886;DHT22;68269;52.514;5.722;2024-02-26T01:37:48;6.10;71.30
78886;DHT22;68269;52.514;5.722;2024-02-26T01:40:15;6.10;71.40
78886;DHT22;68269;52.514;5.722;2024-02-26T01:42:46;6.10;71.30
78886;DHT22;68269;52.514;5.722;2024-02-26T01:45:19;6.10;71.30
78886;DHT22;68269;52.514;5.722;2024-02-26T01:47:51;6.10;71.40
78886;DHT22;68269;52.514;5.722;2024-02-26T01:50:21;6.10;71.40
78886;DHT22;68269;52.514;5.722;2024-02-26T01:52:51;6.00;71.40
78886;DHT22;68269;52.514;5.722;2024-02-26T01:55:24;6.00;71.30
78886;DHT22;68269;52.514;5.722;2024-02-26T01:57:54;6.00;71.40
78886;DHT22;68269;52.514;5.722;2024-02-26T02:00:26;6.00;71.40
78886;DHT22;68269;52.514;5.722;2024-02-26T02:02:55;6.00;71.40
78886;DHT22;68269;52.514;5.722;2024-02-26T02:05:26;6.00;71.40
78886;DHT22;68269;52.514;5.722;2024-02-26T02:07:55;6.00;71.40
78886;DHT22;68269;52.514;5.722;2024-02-26T02:10:26;6.00;71.40
78886;DHT22;68269;52.514;5.722;2024-02-26T02:12:55;6.00;71.40
78886;DHT22;68269;52.514;5.722;2024-02-26T02:15:27;6.00;71.40
78886;DHT22;68269;52.514;5.722;2024-02-26T02:17:56;5.90;71.40
78886;DHT22;68269;52.514;5.722;2024-02-26T02:20:32;5.90;71.40
78886;DHT22;68269;52.514;5.722;2024-02-26T02:23:02;5.90;71.40
78886;DHT22;68269;52.514;5.722;2024-02-26T02:25:31;5.90;71.40
78886;DHT22;68269;52.514;5.722;2024-02-26T02:28:01;5.90;71.40
78886;DHT22;68269;52.514;5.722;2024-02-26T02:30:31;5.90;71.40
78886;DHT22;68269;52.514;5.722;2024-02-26T02:33:02;5.90;71.40
78886;DHT22;68269;52.514;5.722;2024-02-26T02:35:33;5.90;71.40
78886;DHT22;68269;52.514;5.722;2024-02-26T02:38:03;5.90;71.40
78886;DHT22;68269;52.514;5.722;2024-02-26T02:40:33;5.90;71.40
78886;DHT22;68269;52.514;5.722;2024-02-26T02:43:03;5.90;71.40
78886;DHT22;68269;52.514;5.722;2024-02-26T02:45:32;5.90;71.40
78886;DHT22;68269;52.514;5.722;2024-02-26T02:48:01;5.90;71.40
78886;DHT22;68269;52.514;5.722;2024-02-26T02:50:33;5.90;71.40
78886;DHT22;68269;52.514;5.722;2024-02-26T02:53:03;5.90;71.40
78886;DHT22;68269;52.514;5.722;2024-02-26T02:55:32;5.90;71.30
78886;DHT22;68269;52.514;5.722;2024-02-26T02:58:01;5.90;71.30
78886;DHT22;68269;52.514;5.722;2024-02-26T03:00:31;5.90;71.30
78886;DHT22;68269;52.514;5.722;2024-02-26T03:03:00;5.90;71.30
78886;DHT22;68269;52.514;5.722;2024-02-26T03:05:32;5.90;71.40
78886;DHT22;68269;52.514;5.722;2024-02-26T03:08:02;5.90;71.30
78886;DHT22;68269;52.514;5.722;2024-02-26T03:10:31;5.80;71.40
78886;DHT22;68269;52.514;5.722;2024-02-26T03:13:01;5.80;71.40
78886;DHT22;68269;52.514;5.722;2024-02-26T03:15:30;5.80;71.40
78886;DHT22;68269;52.514;5.722;2024-02-26T03:17:59;5.80;71.40
78886;DHT22;68269;52.514;5.722;2024-02-26T03:20:28;5.80;71.40
78886;DHT22;68269;52.514;5.722;2024-02-26T03:23:00;5.80;71.40
78886;DHT22;68269;52.514;5.722;2024-02-26T03:25:30;5.90;71.30
78886;DHT22;68269;52.514;5.722;2024-02-26T03:27:59;5.80;71.30
78886;DHT22;68269;52.514;5.722;2024-02-26T03:30:28;5.90;71.30
78886;DHT22;68269;52.514;5.722;2024-02-26T03:32:57;5.90;71.40
78886;DHT22;68269;52.514;5.722;2024-02-26T03:35:27;5.80;71.40
78886;DHT22;68269;52.514;5.722;2024-02-26T03:37:56;5.90;71.30
78886;DHT22;68269;52.514;5.722;2024-02-26T03:40:28;5.90;71.30
78886;DHT22;68269;52.514;5.722;2024-02-26T03:42:57;5.90;71.30
78886;DHT22;68269;52.514;5.722;2024-02-26T03:45:26;6.00;71.20
78886;DHT22;68269;52.514;5.722;2024-02-26T03:47:56;6.00;71.20
78886;DHT22;68269;52.514;5.722;2024-02-26T03:50:25;6.00;71.20
78886;DHT22;68269;52.514;5.722;2024-02-26T03:52:54;6.00;71.20
78886;DHT22;68269;52.514;5.722;2024-02-26T03:55:23;6.00;71.20
78886;DHT22;68269;52.514;5.722;2024-02-26T03:57:56;6.10;71.20
78886;DHT22;68269;52.514;5.722;2024-02-26T04:00:25;6.10;71.20
78886;DHT22;68269;52.514;5.722;2024-02-26T04:02:56;6.10;71.20
78886;DHT22;68269;52.514;5.722;2024-02-26T04:05:25;6.10;71.20
78886;DHT22;68269;52.514;5.722;2024-02-26T04:07:55;6.10;71.20
78886;DHT22;68269;52.514;5.722;2024-02-26T04:10:24;6.10;71.20
78886;DHT22;68269;52.514;5.722;2024-02-26T04:12:56;6.10;71.20
78886;DHT22;68269;52.514;5.722;2024-02-26T04:15:25;6.10;71.20
78886;DHT22;68269;52.514;5.722;2024-02-26T04:17:55;6.10;71.20
78886;DHT22;68269;52.514;5.722;2024-02-26T04:20:24;6.10;71.20
78886;DHT22;68269;52.514;5.722;2024-02-26T04:22:53;6.10;71.20
78886;DHT22;68269;52.514;5.722;2024-02-26T04:25:22;6.20;71.20
78886;DHT22;68269;52.514;5.722;2024-02-26T04:27:52;6.20;71.20
78886;DHT22;68269;52.514;5.722;2024-02-26T04:30:24;6.20;71.10
78886;DHT22;68269;52.514;5.722;2024-02-26T04:32:53;6.20;71.10
78886;DHT22;68269;52.514;5.722;2024-02-26T04:35:22;6.20;71.20
78886;DHT22;68269;52.514;5.722;2024-02-26T04:37:52;6.20;71.20
78886;DHT22;68269;52.514;5.722;2024-02-26T04:40:21;6.20;71.20
78886;DHT22;68269;52.514;5.722;2024-02-26T04:42:50;6.20;71.20
78886;DHT22;68269;52.514;5.722;2024-02-26T04:45:20;6.20;71.30
78886;DHT22;68269;52.514;5.722;2024-02-26T04:47:51;6.20;71.30
78886;DHT22;68269;52.514;5.722;2024-02-26T04:50:21;6.20;71.30
78886;DHT22;68269;52.514;5.722;2024-02-26T04:52:50;6.10;71.30
78886;DHT22;68269;52.514;5.722;2024-02-26T04:55:20;6.10;71.40
78886;DHT22;68269;52.514;5.722;2024-02-26T04:57:49;6.10;71.40
78886;DHT22;68269;52.514;5.722;2024-02-26T05:00:18;6.10;71.40
78886;DHT22;68269;52.514;5.722;2024-02-26T05:02:48;6.10;71.50
78886;DHT22;68269;52.514;5.722;2024-02-26T05:05:20;6.10;71.50
78886;DHT22;68269;52.514;5.722;2024-02-26T05:07:49;6.10;71.50
78886;DHT22;68269;52.514;5.722;2024-02-26T05:10:18;6.10;71.50
78886;DHT22;68269;52.514;5.722;2024-02-26T05:12:48;6.10;71.50
78886;DHT22;68269;52.514;5.722;2024-02-26T05:15:17;6.10;71.50
78886;DHT22;68269;52.514;5.722;2024-02-26T05:17:46;6.10;71.50
78886;DHT22;68269;52.514;5.722;2024-02-26T05:20:15;6.10;71.50
78886;DHT22;68269;52.514;5.722;2024-02-26T05:22:47;6.10;71.50
78886;DHT22;68269;52.514;5.722;2024-02-26T05:25:17;6.10;71.50
78886;DHT22;68269;52.514;5.722;2024-02-26T05:27:46;6.10;71.50
78886;DHT22;68269;52.514;5.722;2024-02-26T05:30:16;6.10;71.50
78886;DHT22;68269;52.514;5.722;2024-02-26T05:32:45;6.10;71.50
78886;DHT22;68269;52.514;5.722;2024-02-26T05:35:15;6.10;71.50
78886;DHT22;68269;52.514;5.722;2024-02-26T05:37:47;6.10;71.50
78886;DHT22;68269;52.514;5.722;2024-02-26T05:40:16;6.10;71.50
78886;DHT22;68269;52.514;5.722;2024-02-26T05:42:46;6.10;71.50
78886;DHT22;68269;52.514;5.722;2024-02-26T05:45:15;6.10;71.50
78886;DHT22;68269;52.514;5.722;2024-02-26T05:47:45;6.10;71.50
78886;DHT22;68269;52.514;5.722;2024-02-26T05:50:16;6.10;71.60
78886;DHT22;68269;52.514;5.722;2024-02-26T05:52:48;6.10;71.60
78886;DHT22;68269;52.514;5.722;2024-02-26T05:55:17;6.10;71.50
78886;DHT22;68269;52.514;5.722;2024-02-26T05:57:46;6.10;71.60
78886;DHT22;68269;52.514;5.722;2024-02-26T06:00:16;6.10;71.50
78886;DHT22;68269;52.514;5.722;2024-02-26T06:02:45;6.20;71.50
78886;DHT22;68269;52.514;5.722;2024-02-26T06:05:15;6.20;71.50
78886;DHT22;68269;52.514;5.722;2024-02-26T06:07:47;6.20;71.50
78886;DHT22;68269;52.514;5.722;2024-02-26T06:10:16;6.20;71.40
78886;DHT22;68269;52.514;5.722;2024-02-26T06:12:47;6.20;71.40
78886;DHT22;68269;52.514;5.722;2024-02-26T06:15:17;6.20;71.30
78886;DHT22;68269;52.514;5.722;2024-02-26T06:17:46;6.20;71.40
78886;DHT22;68269;52.514;5.722;2024-02-26T06:20:15;6.10;71.50
78886;DHT22;68269;52.514;5.722;2024-02-26T06:22:47;6.10;71.50
78886;DHT22;68269;52.514;5.722;2024-02-26T06:25:17;6.10;71.50
78886;DHT22;68269;52.514;5.722;2024-02-26T06:27:46;6.10;71.50
78886;DHT22;68269;52.514;5.722;2024-02-26T06:30:15;6.20;71.60
78886;DHT22;68269;52.514;5.722;2024-02-26T06:32:45;6.20;71.50
78886;DHT22;68269;52.514;5.722;2024-02-26T06:35:14;6.20;71.50
78886;DHT22;68269;52.514;5.722;2024-02-26T06:37:44;6.20;71.50
78886;DHT22;68269;52.514;5.722;2024-02-26T06:40:16;6.20;71.50
78886;DHT22;68269;52.514;5.722;2024-02-26T06:42:45;6.10;71.50
78886;DHT22;68269;52.514;5.722;2024-02-26T06:45:14;6.20;71.50
78886;DHT22;68269;52.514;5.722;2024-02-26T06:47:44;6.10;71.50
78886;DHT22;68269;52.514;5.722;2024-02-26T06:50:14;6.20;71.50
78886;DHT22;68269;52.514;5.722;2024-02-26T06:52:44;6.10;71.50
78886;DHT22;68269;52.514;5.722;2024-02-26T06:55:16;6.10;71.50
78886;DHT22;68269;52.514;5.722;2024-02-26T06:57:46;6.20;71.50
78886;DHT22;68269;52.514;5.722;2024-02-26T07:00:16;6.10;71.50
78886;DHT22;68269;52.514;5.722;2024-02-26T07:02:45;6.10;71.50
78886;DHT22;68269;52.514;5.722;2024-02-26T07:05:15;6.10;71.50
78886;DHT22;68269;52.514;5.722;2024-02-26T07:07:44;6.30;71.40
78886;DHT22;68269;52.514;5.722;2024-02-26T07:10:16;6.40;71.00
78886;DHT22;68269;52.514;5.722;2024-02-26T07:12:45;6.60;70.60
78886;DHT22;68269;52.514;5.722;2024-02-26T07:15:15;6.60;70.50
78886;DHT22;68269;52.514;5.722;2024-02-26T07:17:45;6.80;70.20
78886;DHT22;68269;52.514;5.722;2024-02-26T07:20:15;6.90;69.90
78886;DHT22;68269;52.514;5.722;2024-02-26T07:22:45;6.90;69.70
78886;DHT22;68269;52.514;5.722;2024-02-26T07:25:17;6.90;69.70
78886;DHT22;68269;52.514;5.722;2024-02-26T07:27:47;6.80;69.80
78886;DHT22;68269;52.514;5.722;2024-02-26T07:30:16;6.80;69.90
78886;DHT22;68269;52.514;5.722;2024-02-26T07:32:46;6.70;70.10
78886;DHT22;68269;52.514;5.722;2024-02-26T07:35:15;6.60;70.40
78886;DHT22;68269;52.514;5.722;2024-02-26T07:37:48;6.50;70.60
78886;DHT22;68269;52.514;5.722;2024-02-26T07:40:20;6.40;70.80
78886;DHT22;68269;52.514;5.722;2024-02-26T07:42:49;6.40;70.90
78886;DHT22;68269;52.514;5.722;2024-02-26T07:45:19;6.30;71.00
78886;DHT22;68269;52.514;5.722;2024-02-26T07:47:48;6.30;71.10
78886;DHT22;68269;52.514;5.722;2024-02-26T07:50:18;6.30;71.10
78886;DHT22;68269;52.514;5.722;2024-02-26T07:52:47;6.30;71.10
78886;DHT22;68269;52.514;5.722;2024-02-26T07:55:20;6.30;71.10
78886;DHT22;68269;52.514;5.722;2024-02-26T07:57:49;6.30;71.20
78886;DHT22;68269;52.514;5.722;2024-02-26T08:00:19;6.30;71.10
78886;DHT22;68269;52.514;5.722;2024-02-26T08:02:48;6.30;71.10
78886;DHT22;68269;52.514;5.722;2024-02-26T08:05:18;6.30;71.10
78886;DHT22;68269;52.514;5.722;2024-02-26T08:07:47;6.40;71.10
78886;DHT22;68269;52.514;5.722;2024-02-26T08:10:19;6.40;71.00
78886;DHT22;68269;52.514;5.722;2024-02-26T08:12:49;6.50;70.90
78886;DHT22;68269;52.514;5.722;2024-02-26T08:15:18;6.50;70.90
78886;DHT22;68269;52.514;5.722;2024-02-26T08:17:47;6.50;70.90
78886;DHT22;68269;52.514;5.722;2024-02-26T08:20:16;6.40;71.00
78886;DHT22;68269;52.514;5.722;2024-02-26T08:22:46;6.40;71.00
78886;DHT22;68269;52.514;5.722;2024-02-26T08:25:15;6.40;71.10
78886;DHT22;68269;52.514;5.722;2024-02-26T08:27:47;6.40;71.10
78886;DHT22;68269;52.514;5.722;2024-02-26T08:30:16;6.40;71.00
78886;DHT22;68269;52.514;5.722;2024-02-26T08:32:47;6.50;71.00
78886;DHT22;68269;52.514;5.722;2024-02-26T08:35:16;6.50;71.00
78886;DHT22;68269;52.514;5.722;2024-02-26T08:37:46;6.50;70.90
78886;DHT22;68269;52.514;5.722;2024-02-26T08:40:16;6.50;70.90
78886;DHT22;68269;52.514;5.722;2024-02-26T08:42:48;6.50;70.90
78886;DHT22;68269;52.514;5.722;2024-02-26T08:45:17;6.60;70.90
78886;DHT22;68269;52.514;5.722;2024-02-26T08:47:47;6.60;70.90
78886;DHT22;68269;52.514;5.722;2024-02-26T08:50:16;6.60;70.90
78886;DHT22;68269;52.514;5.722;2024-02-26T08:52:45;6.70;70.80
78886;DHT22;68269;52.514;5.722;2024-02-26T08:55:17;6.70;70.70
78886;DHT22;68269;52.514;5.722;2024-02-26T08:57:49;6.70;70.70
78886;DHT22;68269;52.514;5.722;2024-02-26T09:00:18;6.70;70.70
78886;DHT22;68269;52.514;5.722;2024-02-26T09:02:48;6.70;70.70
78886;DHT22;68269;52.514;5.722;2024-02-26T09:05:17;6.70;70.70
78886;DHT22;68269;52.514;5.722;2024-02-26T09:07:47;6.70;70.70
78886;DHT22;68269;52.514;5.722;2024-02-26T09:10:18;6.70;70.80
78886;DHT22;68269;52.514;5.722;2024-02-26T09:12:50;6.70;70.80
78886;DHT22;68269;52.514;5.722;2024-02-26T09:15:19;6.70;70.80
78886;DHT22;68269;52.514;5.722;2024-02-26T09:17:48;6.80;70.70
78886;DHT22;68269;52.514;5.722;2024-02-26T09:20:18;6.80;70.80
78886;DHT22;68269;52.514;5.722;2024-02-26T09:22:50;6.80;70.70
78886;DHT22;68269;52.514;5.722;2024-02-26T09:25:19;6.80;70.70
78886;DHT22;68269;52.514;5.722;2024-02-26T09:27:52;6.80;70.70
78886;DHT22;68269;52.514;5.722;2024-02-26T09:30:21;6.90;70.70
78886;DHT22;68269;52.514;5.722;2024-02-26T09:32:51;6.90;70.70
78886;DHT22;68269;52.514;5.722;2024-02-26T09:35:20;6.90;70.70
78886;DHT22;68269;52.514;5.722;2024-02-26T09:37:50;6.90;70.70
78886;DHT22;68269;52.514;5.722;2024-02-26T09:40:20;6.90;70.70
78886;DHT22;68269;52.514;5.722;2024-02-26T09:42:55;6.90;70.70
78886;DHT22;68269;52.514;5.722;2024-02-26T09:45:28;6.90;70.70
78886;DHT22;68269;52.514;5.722;2024-02-26T09:47:57;7.00;70.70
78886;DHT22;68269;52.514;5.722;2024-02-26T09:50:26;7.00;70.70
78886;DHT22;68269;52.514;5.722;2024-02-26T09:52:56;7.00;70.60
78886;DHT22;68269;52.514;5.722;2024-02-26T09:55:28;7.00;70.60
78886;DHT22;68269;52.514;5.722;2024-02-26T09:58:00;7.00;70.50
78886;DHT22;68269;52.514;5.722;2024-02-26T10:00:31;7.00;70.50
78886;DHT22;68269;52.514;5.722;2024-02-26T10:03:04;7.20;70.50
78886;DHT22;68269;52.514;5.722;2024-02-26T10:05:33;7.20;70.40
78886;DHT22;68269;52.514;5.722;2024-02-26T10:08:04;7.20;70.40
78886;DHT22;68269;52.514;5.722;2024-02-26T10:10:34;7.20;70.40
78886;DHT22;68269;52.514;5.722;2024-02-26T10:13:07;7.20;70.40
78886;DHT22;68269;52.514;5.722;2024-02-26T10:15:38;7.30;70.40
78886;DHT22;68269;52.514;5.722;2024-02-26T10:18:07;7.30;70.30
78886;DHT22;68269;52.514;5.722;2024-02-26T10:20:36;7.40;70.30
78886;DHT22;68269;52.514;5.722;2024-02-26T10:23:06;7.40;70.30
78886;DHT22;68269;52.514;5.722;2024-02-26T10:25:35;7.40;70.30
78886;DHT22;68269;52.514;5.722;2024-02-26T10:28:09;7.40;70.30
78886;DHT22;68269;52.514;5.722;2024-02-26T10:30:39;7.40;70.30
78886;DHT22;68269;52.514;5.722;2024-02-26T10:33:09;7.40;70.20
78886;DHT22;68269;52.514;5.722;2024-02-26T10:35:39;7.40;70.30
78886;DHT22;68269;52.514;5.722;2024-02-26T10:38:09;7.40;70.30
78886;DHT22;68269;52.514;5.722;2024-02-26T10:40:38;7.50;70.30
78886;DHT22;68269;52.514;5.722;2024-02-26T10:43:10;7.40;70.30
78886;DHT22;68269;52.514;5.722;2024-02-26T10:45:40;7.50;70.30
78886;DHT22;68269;52.514;5.722;2024-02-26T10:48:12;7.50;70.20
78886;DHT22;68269;52.514;5.722;2024-02-26T10:50:43;7.60;70.10
78886;DHT22;68269;52.514;5.722;2024-02-26T10:53:16;7.60;70.00
78886;DHT22;68269;52.514;5.722;2024-02-26T10:55:48;7.60;70.00
78886;DHT22;68269;52.514;5.722;2024-02-26T10:58:22;7.70;70.00
78886;DHT22;68269;52.514;5.722;2024-02-26T11:00:52;7.70;70.00
78886;DHT22;68269;52.514;5.722;2024-02-26T11:03:23;7.70;70.00
78886;DHT22;68269;52.514;5.722;2024-02-26T11:05:53;7.70;70.00
78886;DHT22;68269;52.514;5.722;2024-02-26T11:08:23;7.80;70.00
78886;DHT22;68269;52.514;5.722;2024-02-26T11:10:54;7.80;70.10
78886;DHT22;68269;52.514;5.722;2024-02-26T11:13:28;7.80;70.00
78886;DHT22;68269;52.514;5.722;2024-02-26T11:16:00;7.80;70.00
78886;DHT22;68269;52.514;5.722;2024-02-26T11:18:30;7.80;70.00
78886;DHT22;68269;52.514;5.722;2024-02-26T11:21:00;7.80;70.00
78886;DHT22;68269;52.514;5.722;2024-02-26T11:23:30;7.80;70.00
78886;DHT22;68269;52.514;5.722;2024-02-26T11:26:04;7.80;70.00
78886;DHT22;68269;52.514;5.722;2024-02-26T11:28:37;7.90;70.00
78886;DHT22;68269;52.514;5.722;2024-02-26T11:31:07;8.00;70.00
78886;DHT22;68269;52.514;5.722;2024-02-26T11:33:36;8.00;70.00
78886;DHT22;68269;52.514;5.722;2024-02-26T11:36:08;8.00;70.00
78886;DHT22;68269;52.514;5.722;2024-02-26T11:38:38;8.00;69.90
78886;DHT22;68269;52.514;5.722;2024-02-26T11:41:08;8.00;69.90
78886;DHT22;68269;52.514;5.722;2024-02-26T11:43:58;8.00;69.90
78886;DHT22;68269;52.514;5.722;2024-02-26T11:46:29;8.10;69.90
78886;DHT22;68269;52.514;5.722;2024-02-26T11:49:01;8.10;69.80
78886;DHT22;68269;52.514;5.722;2024-02-26T11:51:34;8.10;69.90
78886;DHT22;68269;52.514;5.722;2024-02-26T11:54:03;8.10;69.90
78886;DHT22;68269;52.514;5.722;2024-02-26T11:56:33;8.10;69.90
78886;DHT22;68269;52.514;5.722;2024-02-26T11:59:11;8.10;69.80
78886;DHT22;68269;52.514;5.722;2024-02-26T12:01:44;8.10;69.90
78886;DHT22;68269;52.514;5.722;2024-02-26T12:04:17;8.10;69.90
78886;DHT22;68269;52.514;5.722;2024-02-26T12:06:48;8.10;69.80
78886;DHT22;68269;52.514;5.722;2024-02-26T12:09:32;8.10;69.90
78886;DHT22;68269;52.514;5.722;2024-02-26T12:12:03;8.10;69.80
78886;DHT22;68269;52.514;5.722;2024-02-26T12:14:50;8.10;69.80
78886;DHT22;68269;52.514;5.722;2024-02-26T12:17:20;8.10;69.90
78886;DHT22;68269;52.514;5.722;2024-02-26T12:19:50;8.10;69.80
78886;DHT22;68269;52.514;5.722;2024-02-26T12:22:20;8.20;69.80
78886;DHT22;68269;52.514;5.722;2024-02-26T12:24:58;8.20;69.80
78886;DHT22;68269;52.514;5.722;2024-02-26T12:27:29;8.20;69.80
78886;DHT22;68269;52.514;5.722;2024-02-26T12:30:02;8.20;69.70
78886;DHT22;68269;52.514;5.722;2024-02-26T12:32:33;8.30;69.70
78886;DHT22;68269;52.514;5.722;2024-02-26T12:35:05;8.30;69.60
78886;DHT22;68269;52.514;5.722;2024-02-26T12:37:35;8.30;69.60
78886;DHT22;68269;52.514;5.722;2024-02-26T12:40:06;8.20;69.60
78886;DHT22;68269;52.514;5.722;2024-02-26T12:42:38;8.20;69.70
78886;DHT22;68269;52.514;5.722;2024-02-26T12:45:12;8.20;69.70
78886;DHT22;68269;52.514;5.722;2024-02-26T12:47:43;8.20;69.70
78886;DHT22;68269;52.514;5.722;2024-02-26T12:50:12;8.20;69.70
78886;DHT22;68269;52.514;5.722;2024-02-26T12:52:44;8.20;69.70
78886;DHT22;68269;52.514;5.722;2024-02-26T12:55:15;8.20;69.80
78886;DHT22;68269;52.514;5.722;2024-02-26T12:57:45;8.10;69.80
78886;DHT22;68269;52.514;5.722;2024-02-26T13:00:21;8.10;69.80
78886;DHT22;68269;52.514;5.722;2024-02-26T13:02:51;8.10;69.90
78886;DHT22;68269;52.514;5.722;2024-02-26T13:05:22;8.10;70.00
78886;DHT22;68269;52.514;5.722;2024-02-26T13:07:52;8.10;70.00
78886;DHT22;68269;52.514;5.722;2024-02-26T13:10:21;8.00;69.90
78886;DHT22;68269;52.514;5.722;2024-02-26T13:12:51;8.10;69.90
78886;DHT22;68269;52.514;5.722;2024-02-26T13:15:23;8.10;69.90
78886;DHT22;68269;52.514;5.722;2024-02-26T13:17:53;8.00;69.90
78886;DHT22;68269;52.514;5.722;2024-02-26T13:20:26;8.00;69.90
78886;DHT22;68269;52.514;5.722;2024-02-26T13:23:02;8.00;69.90
78886;DHT22;68269;52.514;5.722;2024-02-26T13:25:32;8.00;69.90
78886;DHT22;68269;52.514;5.722;2024-02-26T13:28:07;8.10;69.90
78886;DHT22;68269;52.514;5.722;2024-02-26T13:30:39;8.10;69.80
78886;DHT22;68269;52.514;5.722;2024-02-26T13:33:10;8.10;69.70
78886;DHT22;68269;52.514;5.722;2024-02-26T13:35:40;8.10;69.70
78886;DHT22;68269;52.514;5.722;2024-02-26T13:38:10;8.10;69.70
78886;DHT22;68269;52.514;5.722;2024-02-26T13:40:41;8.20;69.70
78886;DHT22;68269;52.514;5.722;2024-02-26T13:43:10;8.20;69.70
78886;DHT22;68269;52.514;5.722;2024-02-26T13:45:42;8.20;69.60
78886;DHT22;68269;52.514;5.722;2024-02-26T13:48:14;8.20;69.60
78886;DHT22;68269;52.514;5.722;2024-02-26T13:50:45;8.30;69.50
78886;DHT22;68269;52.514;5.722;2024-02-26T13:53:15;8.30;69.50
78886;DHT22;68269;52.514;5.722;2024-02-26T13:55:44;8.30;69.50
78886;DHT22;68269;52.514;5.722;2024-02-26T13:58:14;8.30;69.50
78886;DHT22;68269;52.514;5.722;2024-02-26T14:00:51;8.30;69.40
78886;DHT22;68269;52.514;5.722;2024-02-26T14:03:21;8.30;69.50
78886;DHT22;68269;52.514;5.722;2024-02-26T14:05:50;8.30;69.40
78886;DHT22;68269;52.514;5.722;2024-02-26T14:08:19;8.30;69.40
78886;DHT22;68269;52.514;5.722;2024-02-26T14:10:49;8.30;69.50
78886;DHT22;68269;52.514;5.722;2024-02-26T14:13:19;8.30;69.50
78886;DHT22;68269;52.514;5.722;2024-02-26T14:15:51;8.30;69.50
78886;DHT22;68269;52.514;5.722;2024-02-26T14:18:20;8.40;69.40
78886;DHT22;68269;52.514;5.722;2024-02-26T14:20:49;8.40;69.30
78886;DHT22;68269;52.514;5.722;2024-02-26T14:23:19;8.40;69.30
78886;DHT22;68269;52.514;5.722;2024-02-26T14:25:48;8.40;69.40
78886;DHT22;68269;52.514;5.722;2024-02-26T14:28:17;8.40;69.40
78886;DHT22;68269;52.514;5.722;2024-02-26T14:30:46;8.40;69.40
78886;DHT22;68269;52.514;5.722;2024-02-26T14:33:18;8.40;69.30
78886;DHT22;68269;52.514;5.722;2024-02-26T14:35:48;8.40;69.30
78886;DHT22;68269;52.514;5.722;2024-02-26T14:38:17;8.40;69.40
78886;DHT22;68269;52.514;5.722;2024-02-26T14:40:47;8.40;69.40
78886;DHT22;68269;52.514;5.722;2024-02-26T14:43:16;8.40;69.40
78886;DHT22;68269;52.514;5.722;2024-02-26T14:45:46;8.40;69.40
78886;DHT22;68269;52.514;5.722;2024-02-26T14:48:17;8.40;69.40
78886;DHT22;68269;52.514;5.722;2024-02-26T14:50:47;8.30;69.40
78886;DHT22;68269;52.514;5.722;2024-02-26T14:53:17;8.30;69.40
78886;DHT22;68269;52.514;5.722;2024-02-26T14:55:46;8.30;69.50
78886;DHT22;68269;52.514;5.722;2024-02-26T14:58:16;8.30;69.40
78886;DHT22;68269;52.514;5.722;2024-02-26T15:00:45;8.30;69.40
78886;DHT22;68269;52.514;5.722;2024-02-26T15:03:18;8.30;69.50
78886;DHT22;68269;52.514;5.722;2024-02-26T15:05:47;8.30;69.40
78886;DHT22;68269;52.514;5.722;2024-02-26T15:08:17;8.30;69.40
78886;DHT22;68269;52.514;5.722;2024-02-26T15:10:46;8.30;69.40
78886;DHT22;68269;52.514;5.722;2024-02-26T15:13:17;8.20;69.40
78886;DHT22;68269;52.514;5.722;2024-02-26T15:15:46;8.20;69.40
78886;DHT22;68269;52.514;5.722;2024-02-26T15:18:18;8.20;69.40
78886;DHT22;68269;52.514;5.722;2024-02-26T15:20:48;8.20;69.50
78886;DHT22;68269;52.514;5.722;2024-02-26T15:23:17;8.10;69.50
78886;DHT22;68269;52.514;5.722;2024-02-26T15:25:46;8.10;69.50
78886;DHT22;68269;52.514;5.722;2024-02-26T15:28:16;8.10;69.60
78886;DHT22;68269;52.514;5.722;2024-02-26T15:30:45;8.10;69.60
78886;DHT22;68269;52.514;5.722;2024-02-26T15:33:14;8.00;69.60
78886;DHT22;68269;52.514;5.722;2024-02-26T15:35:47;8.00;69.60
78886;DHT22;68269;52.514;5.722;2024-02-26T15:38:16;8.00;69.60
78886;DHT22;68269;52.514;5.722;2024-02-26T15:40:45;8.00;69.50
78886;DHT22;68269;52.514;5.722;2024-02-26T15:43:15;8.10;69.50
78886;DHT22;68269;52.514;5.722;2024-02-26T15:45:45;8.00;69.40
78886;DHT22;68269;52.514;5.722;2024-02-26T15:48:15;8.00;69.50
78886;DHT22;68269;52.514;5.722;2024-02-26T15:50:47;8.00;69.50
78886;DHT22;68269;52.514;5.722;2024-02-26T15:53:16;8.00;69.50
78886;DHT22;68269;52.514;5.722;2024-02-26T15:55:45;8.00;69.60
78886;DHT22;68269;52.514;5.722;2024-02-26T15:58:15;7.90;69.60
78886;DHT22;68269;52.514;5.722;2024-02-26T16:00:44;7.80;69.60
78886;DHT22;68269;52.514;5.722;2024-02-26T16:03:13;7.80;69.70